Empire State — WDE4431 — position and weather

sailwx.info

Track history (hours):
 
Tides and Currents Weather Stations Pressure Air Temp Water Temp Dewpoint Dewpoint Depression Visibility Wind Speed Wind Dir Waves Ship Positions

Empire State

Owner: Crowley Petroleum Services, Jacksonville, FL. More information available from US FCC via Universal Licensing System and Coast Guard Vessel Documentation Center.

Last reported at 2017-Jul-23 07:25 UTC. Time now 2017-Jul-24 06:23 UTC.
Position N 36°55' W 124°36'.

Length 183 m; draft 8.8 m.

Type: Military. MMSI: 367353080.

Date/timePositionNaut miles runAvg speedWind from/ knotsBaromVisibWave heightAir tempDewpointWater temp
2017-Jul-23 07:25N 36°55' W 124°36'614.1
2017-Jul-23 07:00N 36°58' W 124°30'814.4
2017-Jul-23 06:29N 37°01' W 124°21'714.3
2017-Jul-23 06:00N 37°04' W 124°14'714.5
2017-Jul-23 05:30N 37°07' W 124°06'714.6
2017-Jul-23 05:01N 37°11' W 123°57'714.7
2017-Jul-23 04:30N 37°14' W 123°49'714.6
2017-Jul-23 04:00N 37°18' W 123°41'714.5
2017-Jul-23 03:30N 37°21' W 123°33'714.8
2017-Jul-23 03:00N 37°25' W 123°25'815.1
2017-Jul-23 02:30N 37°28' W 123°17'714.1
2017-Jul-23 02:00N 37°32' W 123°09'611.6
2017-Jul-23 01:30N 37°34' W 123°02'5 9.8
2017-Jul-23 01:00N 37°37' W 122°57'5 9.7
2017-Jul-23 00:30N 37°40' W 122°52'5 9.7
2017-Jul-23 00:00N 37°43' W 122°47'510.1
2017-Jul-22 23:30N 37°46' W 122°42'510.4
2017-Jul-22 23:00N 37°47' W 122°36'612.9
2017-Jul-22 22:30N 37°49' W 122°28'4 7.5
2017-Jul-22 22:00N 37°52' W 122°25'5 9.1
2017-Jul-22 21:30N 37°57' W 122°27'4 8.8
2017-Jul-22 21:00N 38°01' W 122°24'4 8.5
2017-Jul-22 20:30N 38°03' W 122°20'3 6.4
2017-Jul-22 20:00N 38°04' W 122°16'0 0.4
2017-Jul-22 19:28N 38°03' W 122°16'0 0.0
2017-Jul-22 18:58N 38°03' W 122°16'0 0.0
2017-Jul-22 18:28N 38°03' W 122°16'0 0.0
2017-Jul-22 17:58N 38°03' W 122°16'0 0.0
2017-Jul-22 17:28N 38°03' W 122°16'0 0.0
2017-Jul-22 16:58N 38°03' W 122°16'0 0.0
2017-Jul-22 16:28N 38°03' W 122°16'0 0.0
2017-Jul-22 15:58N 38°03' W 122°16'0 0.0
2017-Jul-22 15:28N 38°03' W 122°16'0 0.0
2017-Jul-22 14:43N 38°03' W 122°16'0 0.0
2017-Jul-21 13:58N 38°03' W 122°16'0 0.0
2017-Jul-21 12:28N 38°03' W 122°16'0 0.0
2017-Jul-21 11:46N 38°03' W 122°16'0 0.0
2017-Jul-21 11:28N 38°03' W 122°16'0 0.0
2017-Jul-21 10:40N 38°03' W 122°16'0 0.0
2017-Jul-21 10:28N 38°03' W 122°16'0 0.0
2017-Jul-21 09:46N 38°03' W 122°16'0 0.0
2017-Jul-21 09:28N 38°03' W 122°16'0 0.0
2017-Jul-21 08:40N 38°03' W 122°16'0 0.0
2017-Jul-21 08:28N 38°03' W 122°16'0 0.0
2017-Jul-21 07:58N 38°03' W 122°16'0 0.0
2017-Jul-21 07:28N 38°03' W 122°16'0 0.0
2017-Jul-21 06:46N 38°03' W 122°16'0 0.0
2017-Jul-21 06:28N 38°03' W 122°16'0 0.0
2017-Jul-21 05:58N 38°03' W 122°16'0 0.0
2017-Jul-21 04:04N 38°03' W 122°16'0 0.0
2017-Jul-21 03:58N 38°03' W 122°16'0 0.0
2017-Jul-21 03:22N 38°03' W 122°16'0 0.0
2017-Jul-21 02:58N 38°03' W 122°16'0 0.0
2017-Jul-21 02:10N 38°03' W 122°16'0 0.1
2017-Jul-21 01:58N 38°03' W 122°16'0 0.0
2017-Jul-21 01:28N 38°03' W 122°16'0 0.0
2017-Jul-21 00:58N 38°03' W 122°16'0 0.0
2017-Jul-20 23:22N 38°03' W 122°16'0 0.0
2017-Jul-20 22:58N 38°03' W 122°16'0 0.0
2017-Jul-20 21:58N 38°03' W 122°16'0 0.0
2017-Jul-20 21:10N 38°03' W 122°16'0 0.0
2017-Jul-20 20:52N 38°03' W 122°16'0 0.0
2017-Jul-20 09:22N 38°03' W 122°16'0 0.0
2017-Jul-20 08:52N 38°03' W 122°16'0 0.0
2017-Jul-20 08:28N 38°03' W 122°16'0 0.0
2017-Jul-20 07:52N 38°03' W 122°16'0 0.0
2017-Jul-20 07:28N 38°03' W 122°16'0 0.0
2017-Jul-20 06:58N 38°03' W 122°16'0 0.0
2017-Jul-20 06:28N 38°03' W 122°16'0 0.0
2017-Jul-20 05:58N 38°03' W 122°16'0 0.0
2017-Jul-20 05:22N 38°03' W 122°16'0 0.0
2017-Jul-20 04:58N 38°03' W 122°16'0 0.0
2017-Jul-20 03:34N 38°03' W 122°16'0 0.0
2017-Jul-20 03:28N 38°03' W 122°16'0 0.0
2017-Jul-20 02:58N 38°03' W 122°16'0 0.0
2017-Jul-20 02:22N 38°03' W 122°16'0 0.0
2017-Jul-20 01:58N 38°03' W 122°16'0 0.0
2017-Jul-20 01:30N 38°03' W 122°16'2 4.1
2017-Jul-20 01:00N 38°03' W 122°18'611.7
2017-Jul-20 00:30N 38°00' W 122°25'713.0
2017-Jul-20 00:00N 37°54' W 122°26'612.7
2017-Jul-19 23:31N 37°48' W 122°22'3 6.0
2017-Jul-19 23:00N 37°46' W 122°21'0 0.1
2017-Jul-19 22:30N 37°46' W 122°21'0 0.1
2017-Jul-19 22:00N 37°46' W 122°21'0 0.1
2017-Jul-19 21:30N 37°46' W 122°21'0 0.0
2017-Jul-19 21:00N 37°46' W 122°21'0 0.1
2017-Jul-19 20:30N 37°46' W 122°21'0 0.0
2017-Jul-19 19:57N 37°46' W 122°21'0 0.1
2017-Jul-19 19:30N 37°46' W 122°21'0 0.0
2017-Jul-19 19:00N 37°46' W 122°21'0 0.0
2017-Jul-19 18:30N 37°46' W 122°21'0 0.0
2017-Jul-19 18:00N 37°46' W 122°21'0 0.2
2017-Jul-19 17:30N 37°46' W 122°21'0 0.2
2017-Jul-19 17:00N 37°45' W 122°21'0 0.0
2017-Jul-19 16:30N 37°45' W 122°21'0 0.1
2017-Jul-19 16:00N 37°45' W 122°21'0 0.0
2017-Jul-19 15:30N 37°45' W 122°21'0 0.0
2017-Jul-19 15:00N 37°45' W 122°21'0 0.0
2017-Jul-19 14:30N 37°45' W 122°21'0 0.0
2017-Jul-19 14:00N 37°45' W 122°21'0 0.0
2017-Jul-19 13:30N 37°45' W 122°21'0 0.0
2017-Jul-19 13:00N 37°45' W 122°21'0 0.0
2017-Jul-19 12:30N 37°45' W 122°21'0 0.1
2017-Jul-19 12:00N 37°45' W 122°21'0 0.2
2017-Jul-19 11:30N 37°46' W 122°21'0 0.2
2017-Jul-19 11:00N 37°46' W 122°21'0 0.0
2017-Jul-19 10:30N 37°46' W 122°21'0 0.0
2017-Jul-19 10:00N 37°46' W 122°21'0 0.1
2017-Jul-19 09:30N 37°46' W 122°21'0 0.0
2017-Jul-19 09:00N 37°46' W 122°21'0 0.0
2017-Jul-19 08:30N 37°46' W 122°21'0 0.0
2017-Jul-19 08:00N 37°46' W 122°21'0 0.0
2017-Jul-19 07:30N 37°46' W 122°21'0 0.0
2017-Jul-19 07:00N 37°46' W 122°21'0 0.1
2017-Jul-19 06:30N 37°46' W 122°21'0 0.0
2017-Jul-19 06:00N 37°46' W 122°21'0 0.0
2017-Jul-19 05:30N 37°46' W 122°21'0 0.0
2017-Jul-19 05:00N 37°46' W 122°21'0 0.2
2017-Jul-19 04:30N 37°46' W 122°21'0 0.3
2017-Jul-19 04:00N 37°45' W 122°21'0 0.2
2017-Jul-19 03:30N 37°45' W 122°21'0 0.1
2017-Jul-19 03:00N 37°45' W 122°21'0 0.0
2017-Jul-19 02:30N 37°45' W 122°21'0 0.0
2017-Jul-19 02:00N 37°45' W 122°21'0 0.1
2017-Jul-19 01:30N 37°45' W 122°21'0 0.1
2017-Jul-19 01:00N 37°45' W 122°21'0 0.0
2017-Jul-19 00:30N 37°45' W 122°21'0 0.0
2017-Jul-19 00:00N 37°45' W 122°21'0 0.1
2017-Jul-18 23:30N 37°45' W 122°21'0 0.0
2017-Jul-18 23:00N 37°45' W 122°21'0 0.1
2017-Jul-18 22:30N 37°45' W 122°21'0 0.1
2017-Jul-18 22:00N 37°45' W 122°21'0 0.2
2017-Jul-18 21:30N 37°46' W 122°21'0 0.1
2017-Jul-18 21:00N 37°46' W 122°21'0 0.0
2017-Jul-18 20:30N 37°46' W 122°21'0 0.2
2017-Jul-18 20:00N 37°46' W 122°21'0 0.1
2017-Jul-18 19:30N 37°46' W 122°21'0 0.0
2017-Jul-18 19:00N 37°46' W 122°21'0 0.1
2017-Jul-18 18:30N 37°46' W 122°21'0 0.1
2017-Jul-18 18:00N 37°46' W 122°21'0 0.0
2017-Jul-18 17:30N 37°46' W 122°21'0 0.1
2017-Jul-18 17:00N 37°46' W 122°21'0 0.0
2017-Jul-18 16:30N 37°46' W 122°21'0 0.1
2017-Jul-18 16:00N 37°46' W 122°21'0 0.0
2017-Jul-18 15:30N 37°46' W 122°21'0 0.2
2017-Jul-18 15:00N 37°45' W 122°21'0 0.0
2017-Jul-18 14:00N 37°45' W 122°21'0 0.0
2017-Jul-18 13:30N 37°45' W 122°21'0 0.0
2017-Jul-18 13:00N 37°45' W 122°21'0 0.1
2017-Jul-18 12:30N 37°45' W 122°21'0 0.0
2017-Jul-18 12:00N 37°45' W 122°21'0 0.1
2017-Jul-18 11:30N 37°45' W 122°21'0 0.0
2017-Jul-18 11:00N 37°45' W 122°21'0 0.2
2017-Jul-18 10:30N 37°46' W 122°21'0 0.2
2017-Jul-18 10:00N 37°46' W 122°21'0 0.0
2017-Jul-18 09:30N 37°46' W 122°21'0 0.1
2017-Jul-18 09:00N 37°46' W 122°21'0 0.0
2017-Jul-18 08:30N 37°46' W 122°21'0 0.0
2017-Jul-18 08:00N 37°46' W 122°21'0 0.0
2017-Jul-18 07:30N 37°46' W 122°21'0 0.0
2017-Jul-18 07:00N 37°46' W 122°21'0 0.0
2017-Jul-18 06:30N 37°46' W 122°21'0 0.0
2017-Jul-18 06:00N 37°46' W 122°21'0 0.0
2017-Jul-18 05:30N 37°46' W 122°21'0 0.0
2017-Jul-18 05:00N 37°46' W 122°21'0 0.1
2017-Jul-18 04:30N 37°46' W 122°21'0 0.1
2017-Jul-18 04:00N 37°46' W 122°21'0 0.2
2017-Jul-18 03:30N 37°46' W 122°21'0 0.4
2017-Jul-18 03:00N 37°45' W 122°21'0 0.0
2017-Jul-18 02:30N 37°45' W 122°21'0 0.0
2017-Jul-18 02:00N 37°45' W 122°21'0 0.0
2017-Jul-18 01:30N 37°45' W 122°21'0 0.0
2017-Jul-18 01:00N 37°45' W 122°21'0 0.0
2017-Jul-18 00:30N 37°45' W 122°21'0 0.0
2017-Jul-18 00:00N 37°45' W 122°21'0 0.1
2017-Jul-17 23:30N 37°45' W 122°21'0 0.1
2017-Jul-17 23:00N 37°45' W 122°21'0 0.1
2017-Jul-17 22:30N 37°45' W 122°21'0 0.0
2017-Jul-17 22:00N 37°45' W 122°21'0 0.1
2017-Jul-17 21:30N 37°45' W 122°21'0 0.4
2017-Jul-17 21:00N 37°45' W 122°21'3 5.1
2017-Jul-17 20:30N 37°47' W 122°23'510.8
2017-Jul-17 20:00N 37°49' W 122°30'611.3
2017-Jul-17 19:30N 37°46' W 122°36'611.1
2017-Jul-17 19:00N 37°43' W 122°42'510.3
2017-Jul-17 18:30N 37°40' W 122°47'510.1
2017-Jul-17 18:00N 37°38' W 122°53'510.0
2017-Jul-17 17:30N 37°35' W 122°58'5 9.6
2017-Jul-17 17:00N 37°32' W 123°03'510.4
2017-Jul-17 16:30N 37°29' W 123°08'5 9.8
2017-Jul-17 16:00N 37°27' W 123°14'5 9.8
2017-Jul-17 15:30N 37°25' W 123°19'4 8.3
2017-Jul-17 15:00N 37°26' W 123°25'510.4
2017-Jul-17 14:30N 37°29' W 123°29'510.1
2017-Jul-17 14:00N 37°33' W 123°34'510.0
2017-Jul-17 13:30N 37°36' W 123°39'64313.2
2017-Jul-15 12:51N 48°15' W 125°20'614.1
2017-Jul-15 12:26N 48°19' W 125°15'614.5
2017-Jul-15 12:00N 48°24' W 125°08'714.1
2017-Jul-15 11:30N 48°30' W 125°01'713.7
2017-Jul-15 11:01N 48°31' W 124°52'815.3
2017-Jul-15 10:30N 48°30' W 124°40'815.9
2017-Jul-15 10:01N 48°27' W 124°29'815.9
2017-Jul-15 09:31N 48°24' W 124°18'815.8
2017-Jul-15 09:01N 48°21' W 124°07'815.8
2017-Jul-15 08:30N 48°18' W 123°56'815.5
2017-Jul-15 08:00N 48°16' W 123°44'815.8
2017-Jul-15 07:30N 48°15' W 123°33'713.2
2017-Jul-15 07:00N 48°12' W 123°24'4 8.5
2017-Jul-15 06:30N 48°09' W 123°19'714.1
2017-Jul-15 06:00N 48°12' W 123°10'713.6
2017-Jul-15 05:28N 48°12' W 122°59'613.9
2017-Jul-15 05:00N 48°12' W 122°49'612.7
2017-Jul-15 04:30N 48°08' W 122°41'612.7
2017-Jul-15 04:00N 48°02' W 122°38'612.5
2017-Jul-15 03:30N 47°57' W 122°33'612.7
2017-Jul-15 03:01N 47°52' W 122°28'713.6
2017-Jul-15 02:30N 47°45' W 122°26'713.7
2017-Jul-15 02:00N 47°38' W 122°27'5 9.5
2017-Jul-15 01:30N 47°34' W 122°31'1 1.7
2017-Jul-15 01:01N 47°34' W 122°32'0 0.0
2017-Jul-14 01:07N 47°34' W 122°32'0 0.0
2017-Jul-14 01:00N 47°34' W 122°32'1 1.7
2017-Jul-14 00:30N 47°33' W 122°31'2 5.0
2017-Jul-14 00:00N 47°35' W 122°28'511.0
2017-Jul-13 23:31N 47°40' W 122°28'611.4
2017-Jul-13 23:00N 47°46' W 122°27'611.2
2017-Jul-13 22:30N 47°51' W 122°28'510.7
2017-Jul-13 22:00N 47°56' W 122°32'510.2
2017-Jul-13 21:31N 47°60' W 122°37'7 9.4
2017-Jul-13 20:49N 48°06' W 122°40'3 9.5
2017-Jul-13 20:28N 48°09' W 122°43'5 9.6
2017-Jul-13 19:59N 48°11' W 122°49'6 9.8
2017-Jul-13 19:24N 48°12' W 122°58'511.9
2017-Jul-13 19:00N 48°12' W 123°05'612.3
2017-Jul-13 18:30N 48°11' W 123°14'511.0
2017-Jul-13 18:00N 48°10' W 123°22'4 7.5
2017-Jul-13 17:30N 48°12' W 123°28'510.6
2017-Jul-13 17:00N 48°13' W 123°35'612.5
2017-Jul-13 16:30N 48°13' W 123°45'713.2
2017-Jul-13 16:00N 48°13' W 123°55'713.5
2017-Jul-13 15:30N 48°16' W 124°04'714.3
2017-Jul-13 15:00N 48°19' W 124°14'713.9
2017-Jul-13 14:31N 48°22' W 124°23'713.8
2017-Jul-13 14:00N 48°25' W 124°33'713.9
2017-Jul-13 13:30N 48°28' W 124°42'714.4
2017-Jul-13 13:00N 48°28' W 124°53'714.0
2017-Jul-13 12:30N 48°25' W 125°03'815.0
2017-Jul-13 12:00N 48°19' W 125°08'714.7
2017-Jul-13 11:30N 48°12' W 125°13'714.5
2017-Jul-13 11:00N 48°06' W 125°18'  
Track history (hours):
 
Tides and Currents Weather Stations Pressure Air Temp Water Temp Dewpoint Dewpoint Depression Visibility Wind Speed Wind Dir Waves Ship Positions

Empire State

Owner: Crowley Petroleum Services, Jacksonville, FL. More information available from US FCC via Universal Licensing System and Coast Guard Vessel Documentation Center.

Last reported at 2017-Jul-23 07:25 UTC. Time now 2017-Jul-24 06:23 UTC.
Position N 36°55' W 124°36'.

Length 183 m; draft 8.8 m.

Type: Military. MMSI: 367353080.

Date/timePositionNaut miles runAvg speedWind from/ knotsBaromVisibWave heightAir tempDewpointWater temp
2017-Jul-23 07:25N 36°55' W 124°36'614.1
2017-Jul-23 07:00N 36°58' W 124°30'814.4
2017-Jul-23 06:29N 37°01' W 124°21'714.3
2017-Jul-23 06:00N 37°04' W 124°14'714.5
2017-Jul-23 05:30N 37°07' W 124°06'714.6
2017-Jul-23 05:01N 37°11' W 123°57'714.7
2017-Jul-23 04:30N 37°14' W 123°49'714.6
2017-Jul-23 04:00N 37°18' W 123°41'714.5
2017-Jul-23 03:30N 37°21' W 123°33'714.8
2017-Jul-23 03:00N 37°25' W 123°25'815.1
2017-Jul-23 02:30N 37°28' W 123°17'714.1
2017-Jul-23 02:00N 37°32' W 123°09'611.6
2017-Jul-23 01:30N 37°34' W 123°02'5 9.8
2017-Jul-23 01:00N 37°37' W 122°57'5 9.7
2017-Jul-23 00:30N 37°40' W 122°52'5 9.7
2017-Jul-23 00:00N 37°43' W 122°47'510.1
2017-Jul-22 23:30N 37°46' W 122°42'510.4
2017-Jul-22 23:00N 37°47' W 122°36'612.9
2017-Jul-22 22:30N 37°49' W 122°28'4 7.5
2017-Jul-22 22:00N 37°52' W 122°25'5 9.1
2017-Jul-22 21:30N 37°57' W 122°27'4 8.8
2017-Jul-22 21:00N 38°01' W 122°24'4 8.5
2017-Jul-22 20:30N 38°03' W 122°20'3 6.4
2017-Jul-22 20:00N 38°04' W 122°16'0 0.4
2017-Jul-22 19:28N 38°03' W 122°16'0 0.0
2017-Jul-22 18:58N 38°03' W 122°16'0 0.0
2017-Jul-22 18:28N 38°03' W 122°16'0 0.0
2017-Jul-22 17:58N 38°03' W 122°16'0 0.0
2017-Jul-22 17:28N 38°03' W 122°16'0 0.0
2017-Jul-22 16:58N 38°03' W 122°16'0 0.0
2017-Jul-22 16:28N 38°03' W 122°16'0 0.0
2017-Jul-22 15:58N 38°03' W 122°16'0 0.0
2017-Jul-22 15:28N 38°03' W 122°16'0 0.0
2017-Jul-22 14:43N 38°03' W 122°16'0 0.0
2017-Jul-21 13:58N 38°03' W 122°16'0 0.0
2017-Jul-21 12:28N 38°03' W 122°16'0 0.0
2017-Jul-21 11:46N 38°03' W 122°16'0 0.0
2017-Jul-21 11:28N 38°03' W 122°16'0 0.0
2017-Jul-21 10:40N 38°03' W 122°16'0 0.0
2017-Jul-21 10:28N 38°03' W 122°16'0 0.0
2017-Jul-21 09:46N 38°03' W 122°16'0 0.0
2017-Jul-21 09:28N 38°03' W 122°16'0 0.0
2017-Jul-21 08:40N 38°03' W 122°16'0 0.0
2017-Jul-21 08:28N 38°03' W 122°16'0 0.0
2017-Jul-21 07:58N 38°03' W 122°16'0 0.0
2017-Jul-21 07:28N 38°03' W 122°16'0 0.0
2017-Jul-21 06:46N 38°03' W 122°16'0 0.0
2017-Jul-21 06:28N 38°03' W 122°16'0 0.0
2017-Jul-21 05:58N 38°03' W 122°16'0 0.0
2017-Jul-21 04:04N 38°03' W 122°16'0 0.0
2017-Jul-21 03:58N 38°03' W 122°16'0 0.0
2017-Jul-21 03:22N 38°03' W 122°16'0 0.0
2017-Jul-21 02:58N 38°03' W 122°16'0 0.0
2017-Jul-21 02:10N 38°03' W 122°16'0 0.1
2017-Jul-21 01:58N 38°03' W 122°16'0 0.0
2017-Jul-21 01:28N 38°03' W 122°16'0 0.0
2017-Jul-21 00:58N 38°03' W 122°16'0 0.0
2017-Jul-20 23:22N 38°03' W 122°16'0 0.0
2017-Jul-20 22:58N 38°03' W 122°16'0 0.0
2017-Jul-20 21:58N 38°03' W 122°16'0 0.0
2017-Jul-20 21:10N 38°03' W 122°16'0 0.0
2017-Jul-20 20:52N 38°03' W 122°16'0 0.0
2017-Jul-20 09:22N 38°03' W 122°16'0 0.0
2017-Jul-20 08:52N 38°03' W 122°16'0 0.0
2017-Jul-20 08:28N 38°03' W 122°16'0 0.0
2017-Jul-20 07:52N 38°03' W 122°16'0 0.0
2017-Jul-20 07:28N 38°03' W 122°16'0 0.0
2017-Jul-20 06:58N 38°03' W 122°16'0 0.0
2017-Jul-20 06:28N 38°03' W 122°16'0 0.0
2017-Jul-20 05:58N 38°03' W 122°16'0 0.0
2017-Jul-20 05:22N 38°03' W 122°16'0 0.0
2017-Jul-20 04:58N 38°03' W 122°16'0 0.0
2017-Jul-20 03:34N 38°03' W 122°16'0 0.0
2017-Jul-20 03:28N 38°03' W 122°16'0 0.0
2017-Jul-20 02:58N 38°03' W 122°16'0 0.0
2017-Jul-20 02:22N 38°03' W 122°16'0 0.0
2017-Jul-20 01:58N 38°03' W 122°16'0 0.0
2017-Jul-20 01:30N 38°03' W 122°16'2 4.1
2017-Jul-20 01:00N 38°03' W 122°18'611.7
2017-Jul-20 00:30N 38°00' W 122°25'713.0
2017-Jul-20 00:00N 37°54' W 122°26'612.7
2017-Jul-19 23:31N 37°48' W 122°22'3 6.0
2017-Jul-19 23:00N 37°46' W 122°21'0 0.1
2017-Jul-19 22:30N 37°46' W 122°21'0 0.1
2017-Jul-19 22:00N 37°46' W 122°21'0 0.1
2017-Jul-19 21:30N 37°46' W 122°21'0 0.0
2017-Jul-19 21:00N 37°46' W 122°21'0 0.1
2017-Jul-19 20:30N 37°46' W 122°21'0 0.0
2017-Jul-19 19:57N 37°46' W 122°21'0 0.1
2017-Jul-19 19:30N 37°46' W 122°21'0 0.0
2017-Jul-19 19:00N 37°46' W 122°21'0 0.0
2017-Jul-19 18:30N 37°46' W 122°21'0 0.0
2017-Jul-19 18:00N 37°46' W 122°21'0 0.2
2017-Jul-19 17:30N 37°46' W 122°21'0 0.2
2017-Jul-19 17:00N 37°45' W 122°21'0 0.0
2017-Jul-19 16:30N 37°45' W 122°21'0 0.1
2017-Jul-19 16:00N 37°45' W 122°21'0 0.0
2017-Jul-19 15:30N 37°45' W 122°21'0 0.0
2017-Jul-19 15:00N 37°45' W 122°21'0 0.0
2017-Jul-19 14:30N 37°45' W 122°21'0 0.0
2017-Jul-19 14:00N 37°45' W 122°21'0 0.0
2017-Jul-19 13:30N 37°45' W 122°21'0 0.0
2017-Jul-19 13:00N 37°45' W 122°21'0 0.0
2017-Jul-19 12:30N 37°45' W 122°21'0 0.1
2017-Jul-19 12:00N 37°45' W 122°21'0 0.2
2017-Jul-19 11:30N 37°46' W 122°21'0 0.2
2017-Jul-19 11:00N 37°46' W 122°21'0 0.0
2017-Jul-19 10:30N 37°46' W 122°21'0 0.0
2017-Jul-19 10:00N 37°46' W 122°21'0 0.1
2017-Jul-19 09:30N 37°46' W 122°21'0 0.0
2017-Jul-19 09:00N 37°46' W 122°21'0 0.0
2017-Jul-19 08:30N 37°46' W 122°21'0 0.0
2017-Jul-19 08:00N 37°46' W 122°21'0 0.0
2017-Jul-19 07:30N 37°46' W 122°21'0 0.0
2017-Jul-19 07:00N 37°46' W 122°21'0 0.1
2017-Jul-19 06:30N 37°46' W 122°21'0 0.0
2017-Jul-19 06:00N 37°46' W 122°21'0 0.0
2017-Jul-19 05:30N 37°46' W 122°21'0 0.0
2017-Jul-19 05:00N 37°46' W 122°21'0 0.2
2017-Jul-19 04:30N 37°46' W 122°21'0 0.3
2017-Jul-19 04:00N 37°45' W 122°21'0 0.2
2017-Jul-19 03:30N 37°45' W 122°21'0 0.1
2017-Jul-19 03:00N 37°45' W 122°21'0 0.0
2017-Jul-19 02:30N 37°45' W 122°21'0 0.0
2017-Jul-19 02:00N 37°45' W 122°21'0 0.1
2017-Jul-19 01:30N 37°45' W 122°21'0 0.1
2017-Jul-19 01:00N 37°45' W 122°21'0 0.0
2017-Jul-19 00:30N 37°45' W 122°21'0 0.0
2017-Jul-19 00:00N 37°45' W 122°21'0 0.1
2017-Jul-18 23:30N 37°45' W 122°21'0 0.0
2017-Jul-18 23:00N 37°45' W 122°21'0 0.1
2017-Jul-18 22:30N 37°45' W 122°21'0 0.1
2017-Jul-18 22:00N 37°45' W 122°21'0 0.2
2017-Jul-18 21:30N 37°46' W 122°21'0 0.1
2017-Jul-18 21:00N 37°46' W 122°21'0 0.0
2017-Jul-18 20:30N 37°46' W 122°21'0 0.2
2017-Jul-18 20:00N 37°46' W 122°21'0 0.1
2017-Jul-18 19:30N 37°46' W 122°21'0 0.0
2017-Jul-18 19:00N 37°46' W 122°21'0 0.1
2017-Jul-18 18:30N 37°46' W 122°21'0 0.1
2017-Jul-18 18:00N 37°46' W 122°21'0 0.0
2017-Jul-18 17:30N 37°46' W 122°21'0 0.1
2017-Jul-18 17:00N 37°46' W 122°21'0 0.0
2017-Jul-18 16:30N 37°46' W 122°21'0 0.1
2017-Jul-18 16:00N 37°46' W 122°21'0 0.0
2017-Jul-18 15:30N 37°46' W 122°21'0 0.2
2017-Jul-18 15:00N 37°45' W 122°21'0 0.0
2017-Jul-18 14:00N 37°45' W 122°21'0 0.0
2017-Jul-18 13:30N 37°45' W 122°21'0 0.0
2017-Jul-18 13:00N 37°45' W 122°21'0 0.1
2017-Jul-18 12:30N 37°45' W 122°21'0 0.0
2017-Jul-18 12:00N 37°45' W 122°21'0 0.1
2017-Jul-18 11:30N 37°45' W 122°21'0 0.0
2017-Jul-18 11:00N 37°45' W 122°21'0 0.2
2017-Jul-18 10:30N 37°46' W 122°21'0 0.2
2017-Jul-18 10:00N 37°46' W 122°21'0 0.0
2017-Jul-18 09:30N 37°46' W 122°21'0 0.1
2017-Jul-18 09:00N 37°46' W 122°21'0 0.0
2017-Jul-18 08:30N 37°46' W 122°21'0 0.0
2017-Jul-18 08:00N 37°46' W 122°21'0 0.0
2017-Jul-18 07:30N 37°46' W 122°21'0 0.0
2017-Jul-18 07:00N 37°46' W 122°21'0 0.0
2017-Jul-18 06:30N 37°46' W 122°21'0 0.0
2017-Jul-18 06:00N 37°46' W 122°21'0 0.0
2017-Jul-18 05:30N 37°46' W 122°21'0 0.0
2017-Jul-18 05:00N 37°46' W 122°21'0 0.1
2017-Jul-18 04:30N 37°46' W 122°21'0 0.1
2017-Jul-18 04:00N 37°46' W 122°21'0 0.2
2017-Jul-18 03:30N 37°46' W 122°21'0 0.4
2017-Jul-18 03:00N 37°45' W 122°21'0 0.0
2017-Jul-18 02:30N 37°45' W 122°21'0 0.0
2017-Jul-18 02:00N 37°45' W 122°21'0 0.0
2017-Jul-18 01:30N 37°45' W 122°21'0 0.0
2017-Jul-18 01:00N 37°45' W 122°21'0 0.0
2017-Jul-18 00:30N 37°45' W 122°21'0 0.0
2017-Jul-18 00:00N 37°45' W 122°21'0 0.1
2017-Jul-17 23:30N 37°45' W 122°21'0 0.1
2017-Jul-17 23:00N 37°45' W 122°21'0 0.1
2017-Jul-17 22:30N 37°45' W 122°21'0 0.0
2017-Jul-17 22:00N 37°45' W 122°21'0 0.1
2017-Jul-17 21:30N 37°45' W 122°21'0 0.4
2017-Jul-17 21:00N 37°45' W 122°21'3 5.1
2017-Jul-17 20:30N 37°47' W 122°23'510.8
2017-Jul-17 20:00N 37°49' W 122°30'611.3
2017-Jul-17 19:30N 37°46' W 122°36'611.1
2017-Jul-17 19:00N 37°43' W 122°42'510.3
2017-Jul-17 18:30N 37°40' W 122°47'510.1
2017-Jul-17 18:00N 37°38' W 122°53'510.0
2017-Jul-17 17:30N 37°35' W 122°58'5 9.6
2017-Jul-17 17:00N 37°32' W 123°03'510.4
2017-Jul-17 16:30N 37°29' W 123°08'5 9.8
2017-Jul-17 16:00N 37°27' W 123°14'5 9.8
2017-Jul-17 15:30N 37°25' W 123°19'4 8.3
2017-Jul-17 15:00N 37°26' W 123°25'510.4
2017-Jul-17 14:30N 37°29' W 123°29'510.1
2017-Jul-17 14:00N 37°33' W 123°34'510.0
2017-Jul-17 13:30N 37°36' W 123°39'64313.2
2017-Jul-15 12:51N 48°15' W 125°20'614.1
2017-Jul-15 12:26N 48°19' W 125°15'614.5
2017-Jul-15 12:00N 48°24' W 125°08'714.1
2017-Jul-15 11:30N 48°30' W 125°01'713.7
2017-Jul-15 11:01N 48°31' W 124°52'815.3
2017-Jul-15 10:30N 48°30' W 124°40'815.9
2017-Jul-15 10:01N 48°27' W 124°29'815.9
2017-Jul-15 09:31N 48°24' W 124°18'815.8
2017-Jul-15 09:01N 48°21' W 124°07'815.8
2017-Jul-15 08:30N 48°18' W 123°56'815.5
2017-Jul-15 08:00N 48°16' W 123°44'815.8
2017-Jul-15 07:30N 48°15' W 123°33'713.2
2017-Jul-15 07:00N 48°12' W 123°24'4 8.5
2017-Jul-15 06:30N 48°09' W 123°19'714.1
2017-Jul-15 06:00N 48°12' W 123°10'713.6
2017-Jul-15 05:28N 48°12' W 122°59'613.9
2017-Jul-15 05:00N 48°12' W 122°49'612.7
2017-Jul-15 04:30N 48°08' W 122°41'612.7
2017-Jul-15 04:00N 48°02' W 122°38'612.5
2017-Jul-15 03:30N 47°57' W 122°33'612.7
2017-Jul-15 03:01N 47°52' W 122°28'713.6
2017-Jul-15 02:30N 47°45' W 122°26'713.7
2017-Jul-15 02:00N 47°38' W 122°27'5 9.5
2017-Jul-15 01:30N 47°34' W 122°31'1 1.7
2017-Jul-15 01:01N 47°34' W 122°32'0 0.0
2017-Jul-14 01:07N 47°34' W 122°32'0 0.0
2017-Jul-14 01:00N 47°34' W 122°32'1 1.7
2017-Jul-14 00:30N 47°33' W 122°31'2 5.0
2017-Jul-14 00:00N 47°35' W 122°28'511.0
2017-Jul-13 23:31N 47°40' W 122°28'611.4
2017-Jul-13 23:00N 47°46' W 122°27'611.2
2017-Jul-13 22:30N 47°51' W 122°28'510.7
2017-Jul-13 22:00N 47°56' W 122°32'510.2
2017-Jul-13 21:31N 47°60' W 122°37'7 9.4
2017-Jul-13 20:49N 48°06' W 122°40'3 9.5
2017-Jul-13 20:28N 48°09' W 122°43'5 9.6
2017-Jul-13 19:59N 48°11' W 122°49'6 9.8
2017-Jul-13 19:24N 48°12' W 122°58'511.9
2017-Jul-13 19:00N 48°12' W 123°05'612.3
2017-Jul-13 18:30N 48°11' W 123°14'511.0
2017-Jul-13 18:00N 48°10' W 123°22'4 7.5
2017-Jul-13 17:30N 48°12' W 123°28'510.6
2017-Jul-13 17:00N 48°13' W 123°35'612.5
2017-Jul-13 16:30N 48°13' W 123°45'713.2
2017-Jul-13 16:00N 48°13' W 123°55'713.5
2017-Jul-13 15:30N 48°16' W 124°04'714.3
2017-Jul-13 15:00N 48°19' W 124°14'713.9
2017-Jul-13 14:31N 48°22' W 124°23'713.8
2017-Jul-13 14:00N 48°25' W 124°33'713.9
2017-Jul-13 13:30N 48°28' W 124°42'714.4
2017-Jul-13 13:00N 48°28' W 124°53'714.0
2017-Jul-13 12:30N 48°25' W 125°03'815.0
2017-Jul-13 12:00N 48°19' W 125°08'714.7
2017-Jul-13 11:30N 48°12' W 125°13'714.5
2017-Jul-13 11:00N 48°06' W 125°18'  

Dump ship's entire track history